createdAt,value
2022-10-14T00:01:53.755Z,97891.66
2022-10-14T00:03:55.138Z,97896.78
2022-10-14T00:05:56.435Z,97895.78
2022-10-14T00:07:57.694Z,97882.91
2022-10-14T00:09:58.980Z,97886.25
2022-10-14T00:12:00.410Z,97878.66
2022-10-14T00:14:01.689Z,97882.06
2022-10-14T00:16:02.987Z,97884.63
2022-10-14T00:18:04.257Z,97881.19
2022-10-14T00:20:06.216Z,97879.47
2022-10-14T00:22:07.491Z,97870.94
2022-10-14T00:24:08.801Z,97881.09
2022-10-14T00:26:10.646Z,97875.19
2022-10-14T00:28:11.922Z,97881.16
2022-10-14T00:30:13.218Z,97891.38
2022-10-14T00:32:14.783Z,97883.66
2022-10-14T00:34:16.221Z,97878.59
2022-10-14T00:36:17.598Z,97876.09
2022-10-14T00:38:18.893Z,97879.53
2022-10-14T00:40:20.162Z,97880.44
2022-10-14T00:42:21.431Z,97875.34
2022-10-14T00:44:22.764Z,97875.44
2022-10-14T00:46:24.091Z,97869.50
2022-10-14T00:48:25.370Z,97873.72
2022-10-14T00:50:26.645Z,97889.03
2022-10-14T00:52:27.966Z,97867.78
2022-10-14T00:54:29.385Z,97863.56
2022-10-14T00:56:30.868Z,97860.19
2022-10-14T00:58:32.179Z,97855.03
2022-10-14T01:00:33.505Z,97857.59
2022-10-14T01:02:34.866Z,97721.88
2022-10-14T01:04:36.175Z,97860.38
2022-10-14T01:06:37.474Z,97851.94
2022-10-14T01:08:38.927Z,97857.19
2022-10-14T01:10:40.198Z,97852.16
2022-10-14T01:12:41.463Z,97861.50
2022-10-14T01:14:42.771Z,97860.66
2022-10-14T01:16:44.318Z,97866.63
2022-10-14T01:18:45.673Z,97854.75
2022-10-14T01:20:46.966Z,97862.38
2022-10-14T01:22:48.453Z,97853.84
2022-10-14T01:24:49.727Z,97859.81
2022-10-14T01:26:50.990Z,97857.31
2022-10-14T01:28:52.347Z,97859.88
2022-10-14T01:30:53.859Z,97859.03
2022-10-14T01:32:55.137Z,97852.28
2022-10-14T01:34:56.429Z,97855.75
2022-10-14T01:36:57.767Z,97844.72
2022-10-14T01:38:59.042Z,97857.50
2022-10-14T01:41:00.303Z,97865.16
2022-10-14T01:43:01.793Z,97857.44
2022-10-14T01:45:03.074Z,97861.69
2022-10-14T01:47:04.429Z,97853.19
2022-10-14T01:49:05.710Z,97853.19
2022-10-14T01:51:07.114Z,97849.78
2022-10-14T01:53:08.455Z,97848.94
2022-10-14T01:55:09.842Z,97851.47
2022-10-14T01:57:11.280Z,97852.28
2022-10-14T01:59:12.556Z,97853.06
2022-10-14T02:01:13.880Z,97853.03
2022-10-14T02:03:15.146Z,97851.31
2022-10-14T02:05:16.452Z,97731.41
2022-10-14T02:07:17.731Z,97857.25
2022-10-14T02:09:18.998Z,97858.16
2022-10-14T02:11:20.295Z,97854.69
2022-10-14T02:13:21.589Z,97852.13
2022-10-14T02:15:22.887Z,97851.22
2022-10-14T02:17:24.371Z,97856.28
2022-10-14T02:19:25.690Z,97849.44
2022-10-14T02:21:27.001Z,97847.75
2022-10-14T02:23:28.281Z,97846.84
2022-10-14T02:25:29.615Z,97847.59
2022-10-14T02:27:30.895Z,97839.91
2022-10-14T02:29:32.222Z,97843.34
2022-10-14T02:31:33.547Z,97847.59
2022-10-14T02:33:34.818Z,97844.25
2022-10-14T02:35:36.127Z,97848.50
2022-10-14T02:37:37.406Z,97851.13
2022-10-14T02:39:38.735Z,97842.63
2022-10-14T02:41:40.012Z,97850.31
2022-10-14T02:43:41.303Z,97841.06
2022-10-14T02:45:42.753Z,97841.97
2022-10-14T02:47:44.058Z,97838.47
2022-10-14T02:49:45.323Z,97838.47
2022-10-14T02:51:46.602Z,97837.53
2022-10-14T02:53:47.887Z,97841.72
2022-10-14T02:55:49.170Z,97843.47
2022-10-14T02:57:50.525Z,97836.63
2022-10-14T02:59:51.838Z,97838.34
2022-10-14T03:01:53.152Z,97832.38
2022-10-14T03:03:54.459Z,97841.69
2022-10-14T03:05:55.730Z,97835.66
2022-10-14T03:07:57.050Z,97834.81
2022-10-14T03:09:58.561Z,97832.16
2022-10-14T03:11:59.875Z,97832.03
2022-10-14T03:14:01.152Z,97826.28
2022-10-14T03:16:02.442Z,97821.25
2022-10-14T03:18:03.716Z,97814.50
2022-10-14T03:20:05.031Z,97824.72
2022-10-14T03:22:06.290Z,97817.88
2022-10-14T03:24:07.798Z,97821.31
2022-10-14T03:26:13.672Z,97816.22
2022-10-14T03:28:15.461Z,97815.34
2022-10-14T03:30:16.802Z,97811.09
2022-10-14T03:32:18.152Z,97805.97
2022-10-14T03:34:19.431Z,97810.25
2022-10-14T03:36:21.042Z,97815.34
2022-10-14T03:38:22.370Z,97805.16
2022-10-14T03:40:23.641Z,97812.75
2022-10-14T03:42:24.928Z,97816.78
2022-10-14T03:44:26.243Z,97821.81
2022-10-14T03:46:28.561Z,97815.94
2022-10-14T03:48:29.834Z,97823.59
2022-10-14T03:50:31.578Z,97827.00
2022-10-14T03:52:32.903Z,97827.06
2022-10-14T03:54:34.196Z,97829.63
2022-10-14T03:56:35.494Z,97832.16
2022-10-14T03:58:36.802Z,97826.22
2022-10-14T04:00:38.070Z,97819.41
2022-10-14T04:02:39.404Z,97818.59
2022-10-14T04:04:40.713Z,97819.41
2022-10-14T04:06:41.998Z,97819.47
2022-10-14T04:08:43.291Z,97815.28
2022-10-14T04:10:44.558Z,97806.84
2022-10-14T04:12:45.886Z,97817.06
2022-10-14T04:14:47.215Z,97812.81
2022-10-14T04:16:50.004Z,97816.25
2022-10-14T04:18:51.515Z,97809.56
2022-10-14T04:20:52.768Z,97807.88
2022-10-14T04:22:54.042Z,97799.38
2022-10-14T04:24:55.342Z,97799.31
2022-10-14T04:26:56.664Z,97797.59
2022-10-14T04:28:58.129Z,97794.19
2022-10-14T04:30:59.450Z,97798.38
2022-10-14T04:33:00.740Z,97802.63
2022-10-14T04:35:02.201Z,97794.94
2022-10-14T04:37:03.477Z,97791.50
2022-10-14T04:39:04.788Z,97797.41
2022-10-14T04:41:06.116Z,97782.94
2022-10-14T04:43:07.439Z,97785.50
2022-10-14T04:45:08.710Z,97779.56
2022-10-14T04:47:10.323Z,97778.75
2022-10-14T04:49:12.761Z,97772.78
2022-10-14T04:51:14.187Z,97776.19
2022-10-14T04:53:19.675Z,97777.91
2022-10-14T04:55:23.134Z,97649.69
2022-10-14T04:57:24.390Z,97776.91
2022-10-14T04:59:25.691Z,97780.28
2022-10-14T05:01:31.516Z,97788.78
2022-10-14T05:03:35.074Z,97776.91
2022-10-14T05:05:36.347Z,97778.63
2022-10-14T05:07:37.679Z,97779.47
2022-10-14T05:09:38.966Z,97773.50
2022-10-14T05:11:40.423Z,97774.28
2022-10-14T05:13:41.750Z,97767.53
2022-10-14T05:15:43.083Z,97770.09
2022-10-14T05:17:44.786Z,97768.47
2022-10-14T05:19:46.219Z,97767.69
2022-10-14T05:21:47.566Z,97756.63
2022-10-14T05:23:48.818Z,97762.56
2022-10-14T05:25:51.749Z,97757.50
2022-10-14T05:27:53.761Z,97759.19
2022-10-14T05:29:55.054Z,97750.69
2022-10-14T05:31:56.626Z,97748.97
2022-10-14T05:33:57.896Z,97754.09
2022-10-14T05:35:59.901Z,97749.00
2022-10-14T05:38:04.265Z,97747.31
2022-10-14T05:40:05.762Z,97755.03
2022-10-14T05:42:07.963Z,97761.06
2022-10-14T05:44:09.255Z,97748.38
2022-10-14T05:46:10.546Z,97756.09
2022-10-14T05:48:11.804Z,97757.88
2022-10-14T05:50:13.113Z,97758.72
2022-10-14T05:52:14.446Z,97758.78
2022-10-14T05:54:15.711Z,97757.16
2022-10-14T05:56:16.987Z,97763.91
2022-10-14T05:58:18.263Z,97763.75
2022-10-14T06:00:24.660Z,97772.22
2022-10-14T06:02:27.012Z,97766.28
2022-10-14T06:04:28.290Z,97770.56
2022-10-14T06:06:29.596Z,97769.72
2022-10-14T06:08:30.883Z,97772.25
2022-10-14T06:10:32.320Z,97765.41
2022-10-14T06:12:33.638Z,97767.09
2022-10-14T06:14:34.949Z,97765.38
2022-10-14T06:16:36.216Z,97769.63
2022-10-14T06:18:37.499Z,97775.50
2022-10-14T06:20:38.813Z,97782.28
2022-10-14T06:22:40.145Z,97776.31
2022-10-14T06:24:41.472Z,97781.41
2022-10-14T06:26:42.814Z,97775.47
2022-10-14T06:28:44.191Z,97777.22
2022-10-14T06:30:45.499Z,97781.50
2022-10-14T06:32:46.789Z,97784.09
2022-10-14T06:34:48.106Z,97777.25
2022-10-14T06:36:49.407Z,97783.19
2022-10-14T06:38:50.677Z,97787.38
2022-10-14T06:40:52.019Z,97787.28
2022-10-14T06:42:53.705Z,97782.19
2022-10-14T06:44:55.095Z,97776.31
2022-10-14T06:46:56.434Z,97778.84
2022-10-14T06:48:57.706Z,97777.97
2022-10-14T06:50:59.058Z,97772.84
2022-10-14T06:53:00.544Z,97776.25
2022-10-14T06:55:01.871Z,97770.31
2022-10-14T06:57:03.244Z,97778.81
2022-10-14T06:59:05.799Z,97782.25
2022-10-14T07:01:07.120Z,97780.69
2022-10-14T07:03:08.400Z,97777.44
2022-10-14T07:05:09.684Z,97781.63
2022-10-14T07:07:10.980Z,97779.97
2022-10-14T07:09:12.267Z,97772.34
2022-10-14T07:11:13.574Z,97781.72
2022-10-14T07:13:14.859Z,97786.81
2022-10-14T07:15:16.119Z,97790.28
2022-10-14T07:17:17.441Z,97790.34
2022-10-14T07:19:18.730Z,97792.91
2022-10-14T07:21:20.079Z,97798.78
2022-10-14T07:23:21.353Z,97786.81
2022-10-14T07:25:22.636Z,97794.41
2022-10-14T07:27:24.312Z,97791.84
2022-10-14T07:29:25.896Z,97794.34
2022-10-14T07:31:27.395Z,97788.91
2022-10-14T07:33:29.116Z,97789.16
2022-10-14T07:35:30.518Z,97784.81
2022-10-14T07:37:31.835Z,97786.03
2022-10-14T07:39:33.921Z,97793.84
2022-10-14T07:41:35.195Z,97793.28
2022-10-14T07:43:36.460Z,97795.19
2022-10-14T07:45:37.755Z,97795.41
2022-10-14T07:47:39.030Z,97798.91
2022-10-14T07:49:40.357Z,97793.91
2022-10-14T07:51:41.782Z,97791.47
2022-10-14T07:53:43.136Z,97801.69
2022-10-14T07:55:51.976Z,97794.94
2022-10-14T07:57:53.256Z,97804.28
2022-10-14T07:59:54.568Z,97791.56
2022-10-14T08:01:56.806Z,97800.09
2022-10-14T08:03:58.327Z,97800.97
2022-10-14T08:06:00.073Z,97800.16
2022-10-14T08:08:01.361Z,97798.47
2022-10-14T08:10:02.951Z,97798.47
2022-10-14T08:12:04.431Z,97797.69
2022-10-14T08:14:05.703Z,97803.66
2022-10-14T08:16:07.075Z,97800.31
2022-10-14T08:18:08.626Z,97665.44
2022-10-14T08:20:10.004Z,97800.38
2022-10-14T08:22:11.565Z,97796.19
2022-10-14T08:24:12.890Z,97795.34
2022-10-14T08:26:14.138Z,97789.50
2022-10-14T08:28:15.465Z,97793.78
2022-10-14T08:30:16.771Z,97798.94
2022-10-14T08:32:18.205Z,97786.19
2022-10-14T08:34:24.375Z,97794.75
2022-10-14T08:36:25.701Z,97788.00
2022-10-14T08:38:27.647Z,97789.72
2022-10-14T08:40:28.934Z,97796.59
2022-10-14T08:42:30.355Z,97802.56
2022-10-14T08:44:31.625Z,97798.38
2022-10-14T08:46:33.127Z,97793.31
2022-10-14T08:48:35.272Z,97785.69
2022-10-14T08:50:36.543Z,97785.72
2022-10-14T08:52:38.040Z,97784.91
2022-10-14T08:54:39.393Z,97784.13
2022-10-14T08:56:40.762Z,97803.69
2022-10-14T08:58:42.073Z,97796.91
2022-10-14T09:00:43.398Z,97795.25
2022-10-14T09:02:44.688Z,97795.28
2022-10-14T09:04:45.975Z,97792.72
2022-10-14T09:06:47.298Z,97791.09
2022-10-14T09:08:48.578Z,97790.25
2022-10-14T09:10:49.852Z,97794.50
2022-10-14T09:12:51.215Z,97811.56
2022-10-14T09:14:52.475Z,97796.25
2022-10-14T09:16:54.257Z,97797.34
2022-10-14T09:18:55.731Z,97795.44
2022-10-14T09:20:57.332Z,97798.38
2022-10-14T09:22:58.633Z,97797.09
2022-10-14T09:25:01.224Z,97797.72
2022-10-14T09:27:02.528Z,97796.69
2022-10-14T09:29:03.850Z,97796.59
2022-10-14T09:31:05.156Z,97802.50
2022-10-14T09:33:06.517Z,97805.88
2022-10-14T09:35:07.819Z,97794.81
2022-10-14T09:37:09.151Z,97799.91
2022-10-14T09:39:10.448Z,97799.06
2022-10-14T09:41:11.732Z,97797.44
2022-10-14T09:43:13.013Z,97800.03
2022-10-14T09:45:14.307Z,97799.19
2022-10-14T09:47:19.036Z,97799.97
2022-10-14T09:49:20.373Z,97798.22
2022-10-14T09:51:21.659Z,97805.78
2022-10-14T09:53:24.347Z,97799.84
2022-10-14T09:55:25.663Z,97799.00
2022-10-14T09:57:26.976Z,97800.72
2022-10-14T09:59:28.259Z,97803.25
2022-10-14T10:01:29.558Z,97797.25
2022-10-14T10:03:32.623Z,97803.19
2022-10-14T10:05:33.983Z,97801.44
2022-10-14T10:07:35.365Z,97801.16
2022-10-14T10:09:37.234Z,97789.13
2022-10-14T10:11:38.766Z,97790.31
2022-10-14T10:13:40.561Z,97782.97
2022-10-14T10:15:41.947Z,97777.09
2022-10-14T10:17:44.791Z,97783.72
2022-10-14T10:19:46.147Z,97776.94
2022-10-14T10:21:47.671Z,97777.03
2022-10-14T10:23:48.948Z,97775.25
2022-10-14T10:25:50.542Z,97769.69
2022-10-14T10:27:52.699Z,97761.28
2022-10-14T10:29:56.272Z,97765.38
2022-10-14T10:32:01.762Z,97765.09
2022-10-14T10:34:03.152Z,97753.44
2022-10-14T10:36:04.478Z,97753.19
2022-10-14T10:38:06.698Z,97754.19
2022-10-14T10:40:07.994Z,97752.72
2022-10-14T10:42:09.314Z,97745.00
2022-10-14T10:44:10.630Z,97750.09
2022-10-14T10:46:18.166Z,97740.44
2022-10-14T10:48:21.099Z,97741.28
2022-10-14T10:50:22.577Z,97734.34
2022-10-14T10:52:24.198Z,97752.81
2022-10-14T10:54:25.738Z,97733.16
2022-10-14T10:56:27.027Z,97742.28
2022-10-14T10:58:28.353Z,97743.00
2022-10-14T11:02:33.307Z,97732.91
2022-10-14T11:04:34.646Z,97732.09
2022-10-14T11:06:54.885Z,97732.00
2022-10-14T11:09:14.903Z,97726.19
2022-10-14T11:11:36.474Z,97722.34
2022-10-14T11:13:37.764Z,97723.19
2022-10-14T11:15:39.023Z,97723.75
2022-10-14T11:17:41.295Z,97728.44
2022-10-14T11:19:42.851Z,97726.88
2022-10-14T11:21:45.358Z,97718.94
2022-10-14T11:23:46.649Z,97719.19
2022-10-14T11:25:49.341Z,97724.66
2022-10-14T11:27:52.104Z,97721.75
2022-10-14T11:29:54.131Z,97719.38
2022-10-14T11:31:55.491Z,97714.44
2022-10-14T11:33:56.810Z,97717.91
2022-10-14T11:35:58.282Z,97705.94
2022-10-14T11:37:59.616Z,97694.50
2022-10-14T11:40:00.865Z,97702.53
2022-10-14T11:42:03.401Z,97699.28
2022-10-14T11:44:04.739Z,97706.59
2022-10-14T11:46:08.251Z,97706.84
2022-10-14T11:48:09.528Z,97702.09
2022-10-14T11:50:10.819Z,97704.03
2022-10-14T11:52:12.144Z,97706.88
2022-10-14T11:54:14.886Z,97697.19
2022-10-14T11:56:16.178Z,97704.28
2022-10-14T11:58:17.458Z,97701.81
2022-10-14T12:00:37.513Z,97702.41
2022-10-14T12:02:39.423Z,97697.03
2022-10-14T12:04:40.767Z,97697.28
2022-10-14T12:06:42.070Z,97697.63
2022-10-14T12:08:43.948Z,97703.00
2022-10-14T12:10:45.270Z,97701.50
2022-10-14T12:12:46.558Z,97694.94
2022-10-14T12:14:50.179Z,97703.47
2022-10-14T12:16:51.464Z,97698.25
2022-10-14T12:18:52.909Z,97699.81
2022-10-14T12:20:54.214Z,97698.78
2022-10-14T12:22:55.481Z,97695.78
2022-10-14T12:24:56.836Z,97698.16
2022-10-14T12:26:58.241Z,97692.13
2022-10-14T12:29:01.485Z,97697.22
2022-10-14T12:31:05.022Z,97696.97
2022-10-14T12:33:09.313Z,97691.75
2022-10-14T12:35:10.599Z,97691.75
2022-10-14T12:37:11.865Z,97570.56
2022-10-14T12:39:13.543Z,97691.94
2022-10-14T12:41:14.943Z,97693.47
2022-10-14T12:43:16.239Z,97689.31
2022-10-14T12:45:17.566Z,97684.25
2022-10-14T12:47:18.847Z,97681.94
2022-10-14T12:49:20.133Z,97693.44
2022-10-14T12:51:21.541Z,97686.34
2022-10-14T12:53:22.806Z,97681.97
2022-10-14T12:55:24.066Z,97678.63
2022-10-14T12:57:25.340Z,97674.41
2022-10-14T12:59:26.641Z,97680.44
2022-10-14T13:01:29.029Z,97686.41
2022-10-14T13:03:33.535Z,97683.91
2022-10-14T13:05:35.014Z,97681.38
2022-10-14T13:07:41.164Z,97688.13
2022-10-14T13:09:43.234Z,97677.72
2022-10-14T13:11:44.549Z,97679.91
2022-10-14T13:13:49.006Z,97679.72
2022-10-14T13:15:50.334Z,97673.03
2022-10-14T13:17:51.643Z,97678.19
2022-10-14T13:19:52.982Z,97679.16
2022-10-14T13:21:54.457Z,97676.03
2022-10-14T13:23:55.799Z,97680.69
2022-10-14T13:25:57.065Z,97679.97
2022-10-14T13:27:58.451Z,97678.31
2022-10-14T13:29:59.778Z,97669.94
2022-10-14T13:32:01.079Z,97667.72
2022-10-14T13:34:02.357Z,97665.75
2022-10-14T13:36:06.594Z,97663.03
2022-10-14T13:38:07.902Z,97662.03
2022-10-14T13:40:09.270Z,97661.13
2022-10-14T13:42:10.595Z,97661.16
2022-10-14T13:44:11.874Z,97662.09
2022-10-14T13:46:13.192Z,97661.16
2022-10-14T13:48:14.607Z,97650.00
2022-10-14T13:50:15.884Z,97645.78
2022-10-14T13:52:17.186Z,97647.66
2022-10-14T13:54:18.520Z,97638.47
2022-10-14T13:56:19.783Z,97641.97
2022-10-14T13:58:21.135Z,97642.72
2022-10-14T14:00:40.123Z,97635.94
2022-10-14T14:02:41.771Z,97636.88
2022-10-14T14:04:43.041Z,97636.03
2022-10-14T14:07:00.447Z,97633.97
2022-10-14T14:09:05.864Z,97625.91
2022-10-14T14:11:23.104Z,97636.25
2022-10-14T14:13:24.549Z,97620.06
2022-10-14T14:15:25.913Z,97627.28
2022-10-14T14:17:28.144Z,97612.72
2022-10-14T14:19:29.631Z,97625.84
2022-10-14T14:21:31.467Z,97619.28
2022-10-14T14:23:34.857Z,97613.69
2022-10-14T14:25:40.452Z,97619.47
2022-10-14T14:27:48.967Z,97614.34
2022-10-14T14:29:50.269Z,97619.31
2022-10-14T14:32:05.980Z,97616.81
2022-10-14T14:34:08.693Z,97608.16
2022-10-14T14:36:18.180Z,97606.38
2022-10-14T14:38:29.753Z,97606.19
2022-10-14T14:40:31.328Z,97613.91
2022-10-14T14:42:32.667Z,97611.97
2022-10-14T14:44:33.988Z,97600.69
2022-10-14T14:46:35.259Z,97600.41
2022-10-14T14:48:36.586Z,97598.78
2022-10-14T14:50:37.856Z,97596.34
2022-10-14T14:52:39.927Z,97596.41
2022-10-14T14:54:41.214Z,97596.56
2022-10-14T14:56:42.513Z,97598.72
2022-10-14T14:58:43.778Z,97596.00
2022-10-14T15:00:45.277Z,97602.03
2022-10-14T15:02:46.588Z,97591.88
2022-10-14T15:04:48.411Z,97593.44
2022-10-14T15:06:51.695Z,97588.44
2022-10-14T15:08:53.287Z,97585.09
2022-10-14T15:10:54.590Z,97592.94
2022-10-14T15:12:55.956Z,97590.38
2022-10-14T15:15:00.159Z,97576.03
2022-10-14T15:17:01.528Z,97592.28
2022-10-14T15:19:02.802Z,97592.78
2022-10-14T15:21:04.076Z,97596.91
2022-10-14T15:23:05.385Z,97593.28
2022-10-14T15:25:06.689Z,97590.69
2022-10-14T15:27:07.956Z,97598.22
2022-10-14T15:29:09.299Z,97593.09
2022-10-14T15:31:10.661Z,97593.84
2022-10-14T15:33:12.094Z,97605.88
2022-10-14T15:35:13.393Z,97586.34
2022-10-14T15:37:14.712Z,97592.22
2022-10-14T15:39:16.112Z,97584.50
2022-10-14T15:41:17.581Z,97583.41
2022-10-14T15:43:18.880Z,97580.50
2022-10-14T15:45:20.198Z,97578.50
2022-10-14T15:47:21.713Z,97576.34
2022-10-14T15:49:23.123Z,97569.31
2022-10-14T15:51:24.455Z,97567.38
2022-10-14T15:53:25.757Z,97569.84
2022-10-14T15:55:27.074Z,97568.16
2022-10-14T15:57:28.394Z,97571.75
2022-10-14T15:59:30.440Z,97566.66
2022-10-14T16:01:31.813Z,97572.53
2022-10-14T16:03:37.217Z,97569.94
2022-10-14T16:05:42.666Z,97569.78
2022-10-14T16:07:45.447Z,97574.81
2022-10-14T16:09:47.264Z,97573.78
2022-10-14T16:11:49.321Z,97569.84
2022-10-14T16:13:50.678Z,97567.38
2022-10-14T16:15:51.957Z,97561.00
2022-10-14T16:17:53.454Z,97568.22
2022-10-14T16:19:54.806Z,97563.78
2022-10-14T16:21:56.176Z,97557.00
2022-10-14T16:23:58.890Z,97549.38
2022-10-14T16:26:03.110Z,97557.09
2022-10-14T16:28:09.185Z,97561.38
2022-10-14T16:30:11.572Z,97546.56
2022-10-14T16:32:13.382Z,97551.47
2022-10-14T16:34:14.670Z,97548.91
2022-10-14T16:36:15.980Z,97551.41
2022-10-14T16:38:17.292Z,97550.94
2022-10-14T16:40:18.595Z,97552.88
2022-10-14T16:42:22.829Z,97552.94
2022-10-14T16:44:27.316Z,97551.34
2022-10-14T16:46:47.745Z,97553.97
2022-10-14T16:48:49.687Z,97549.06
2022-10-14T16:50:57.002Z,97551.50
2022-10-14T16:53:16.810Z,97559.19
2022-10-14T16:55:18.079Z,97550.63
2022-10-14T16:57:19.379Z,97554.63
2022-10-14T16:59:20.719Z,97553.66
2022-10-14T17:01:22.252Z,97548.56
2022-10-14T17:03:23.542Z,97552.16
2022-10-14T17:05:25.062Z,97549.13
2022-10-14T17:07:26.363Z,97556.66
2022-10-14T17:09:27.651Z,97551.91
2022-10-14T17:11:29.275Z,97552.19
2022-10-14T17:13:30.555Z,97553.66
2022-10-14T17:15:31.883Z,97544.22
2022-10-14T17:17:33.405Z,97550.09
2022-10-14T17:19:37.647Z,97547.50
2022-10-14T17:21:39.684Z,97545.72
2022-10-14T17:23:43.895Z,97544.88
2022-10-14T17:25:46.541Z,97544.78
2022-10-14T17:27:47.910Z,97547.97
2022-10-14T17:29:49.679Z,97548.50
2022-10-14T17:31:50.993Z,97550.09
2022-10-14T17:33:52.269Z,97548.44
2022-10-14T17:35:53.595Z,97547.59
2022-10-14T17:37:54.876Z,97547.91
2022-10-14T17:39:56.137Z,97548.66
2022-10-14T17:41:57.923Z,97553.16
2022-10-14T17:44:00.030Z,97541.47
2022-10-14T17:46:02.103Z,97555.44
2022-10-14T17:48:03.615Z,97550.09
2022-10-14T17:50:08.964Z,97542.28
2022-10-14T17:52:11.337Z,97539.72
2022-10-14T17:54:12.647Z,97544.00
2022-10-14T17:56:13.930Z,97546.59
2022-10-14T17:58:15.209Z,97544.88
2022-10-14T18:00:16.482Z,97548.97
2022-10-14T18:02:17.923Z,97540.13
2022-10-14T18:04:22.012Z,97542.50
2022-10-14T18:06:23.513Z,97541.59
2022-10-14T18:08:25.197Z,97539.88
2022-10-14T18:10:26.469Z,97544.78
2022-10-14T18:12:27.752Z,97531.97
2022-10-14T18:14:29.042Z,97538.03
2022-10-14T18:16:33.610Z,97529.63
2022-10-14T18:18:38.158Z,97531.63
2022-10-14T18:20:39.572Z,97527.56
2022-10-14T18:22:40.967Z,97534.34
2022-10-14T18:24:43.825Z,97527.56
2022-10-14T18:26:45.100Z,97532.78
2022-10-14T18:28:46.588Z,97533.69
2022-10-14T18:30:47.929Z,97530.94
2022-10-14T18:32:49.236Z,97531.53
2022-10-14T18:34:50.531Z,97531.31
2022-10-14T18:36:51.821Z,97528.69
2022-10-14T18:38:53.138Z,97516.91
2022-10-14T18:40:54.457Z,97523.44
2022-10-14T18:42:58.084Z,97521.94
2022-10-14T18:44:59.402Z,97520.03
2022-10-14T18:47:00.673Z,97511.94
2022-10-14T18:49:02.758Z,97514.72
2022-10-14T18:51:04.052Z,97514.63
2022-10-14T18:53:05.321Z,97512.84
2022-10-14T18:55:09.419Z,97503.59
2022-10-14T18:57:14.792Z,97510.38
2022-10-14T18:59:16.092Z,97512.06
2022-10-14T19:01:17.416Z,97508.47
2022-10-14T19:03:18.733Z,97510.00
2022-10-14T19:05:20.007Z,97512.53
2022-10-14T19:07:21.783Z,97501.38
2022-10-14T19:09:28.903Z,97496.97
2022-10-14T19:11:30.422Z,97492.47
2022-10-14T19:13:31.743Z,97495.81
2022-10-14T19:15:45.217Z,97499.94
2022-10-14T19:17:54.497Z,97499.00
2022-10-14T19:19:56.042Z,97500.53
2022-10-14T19:21:59.664Z,97499.84
2022-10-14T19:24:00.969Z,97495.44
2022-10-14T19:26:02.239Z,97488.25
2022-10-14T19:28:03.618Z,97495.78
2022-10-14T19:30:04.894Z,97489.81
2022-10-14T19:32:09.150Z,97483.38
2022-10-14T19:34:10.487Z,97489.16
2022-10-14T19:36:11.787Z,97478.28
2022-10-14T19:38:13.059Z,97477.50
2022-10-14T19:40:14.374Z,97478.28
2022-10-14T19:42:15.650Z,97480.66
2022-10-14T19:44:17.163Z,97490.31
2022-10-14T19:46:18.831Z,97473.34
2022-10-14T19:48:20.129Z,97480.56
2022-10-14T19:50:21.418Z,97473.47
2022-10-14T19:52:22.714Z,97479.31
2022-10-14T19:54:23.999Z,97466.50
2022-10-14T19:56:28.283Z,97469.84
2022-10-14T19:58:29.782Z,97464.53
2022-10-14T20:00:31.062Z,97463.50
2022-10-14T20:02:32.370Z,97464.13
2022-10-14T20:04:33.646Z,97449.56
2022-10-14T20:06:35.834Z,97448.69
2022-10-14T20:08:37.186Z,97440.16
2022-10-14T20:10:38.451Z,97441.91
2022-10-14T20:12:39.749Z,97437.72
2022-10-14T20:14:41.047Z,97432.41
2022-10-14T20:16:42.321Z,97436.63
2022-10-14T20:18:43.741Z,97430.69
2022-10-14T20:20:45.009Z,97435.06
2022-10-14T20:22:46.356Z,97433.97
2022-10-14T20:24:50.390Z,97428.19
2022-10-14T20:26:51.691Z,97430.88
2022-10-14T20:28:54.430Z,97436.94
2022-10-14T20:30:57.377Z,97427.56
2022-10-14T20:32:58.651Z,97431.00
2022-10-14T20:34:59.927Z,97419.03
2022-10-14T20:37:01.201Z,97423.06
2022-10-14T20:39:02.456Z,97413.72
2022-10-14T20:41:04.209Z,97419.41
2022-10-14T20:43:05.487Z,97427.22
2022-10-14T20:45:06.763Z,97427.75
2022-10-14T20:47:08.076Z,97421.63
2022-10-14T20:49:09.355Z,97421.44
2022-10-14T20:51:10.626Z,97423.13
2022-10-14T20:53:12.153Z,97420.63
2022-10-14T20:55:13.486Z,97424.00
2022-10-14T20:57:14.830Z,97427.56
2022-10-14T20:59:16.219Z,97424.13
2022-10-14T21:01:17.644Z,97413.81
2022-10-14T21:03:18.987Z,97405.72
2022-10-14T21:05:20.647Z,97411.91
2022-10-14T21:07:22.207Z,97402.22
2022-10-14T21:09:23.705Z,97399.81
2022-10-14T21:11:25.003Z,97399.31
2022-10-14T21:13:26.339Z,97393.59
2022-10-14T21:15:27.732Z,97395.31
2022-10-14T21:17:29.023Z,97403.53
2022-10-14T21:19:30.313Z,97384.09
2022-10-14T21:21:31.575Z,97383.53
2022-10-14T21:23:32.890Z,97386.97
2022-10-14T21:25:34.911Z,97382.78
2022-10-14T21:27:36.231Z,97376.91
2022-10-14T21:29:37.503Z,97378.84
2022-10-14T21:31:40.822Z,97376.47
2022-10-14T21:33:42.136Z,97369.31
2022-10-14T21:35:43.423Z,97376.84
2022-10-14T21:37:44.703Z,97372.09
2022-10-14T21:39:46.156Z,97367.16
2022-10-14T21:41:47.421Z,97366.63
2022-10-14T21:43:48.840Z,97369.88
2022-10-14T21:45:50.130Z,97365.53
2022-10-14T21:47:53.374Z,97363.06
2022-10-14T21:49:55.493Z,97365.72
2022-10-14T21:51:56.765Z,97365.81
2022-10-14T21:53:58.043Z,97368.44
2022-10-14T21:55:59.352Z,97358.28
2022-10-14T21:58:00.705Z,97366.88
2022-10-14T22:00:02.058Z,97367.75
2022-10-14T22:02:03.364Z,97361.03
2022-10-14T22:04:04.706Z,97358.56
2022-10-14T22:08:12.239Z,97349.25
2022-10-14T22:10:32.006Z,97351.91
2022-10-14T22:12:33.286Z,97353.69
2022-10-14T22:14:34.567Z,97345.19
2022-10-14T22:16:35.857Z,97356.28
2022-10-14T22:18:37.457Z,97345.22
2022-10-14T22:20:38.757Z,97348.69
2022-10-14T22:22:40.189Z,97338.47
2022-10-14T22:24:41.483Z,97345.34
2022-10-14T22:26:42.878Z,97349.63
2022-10-14T22:28:44.204Z,97347.16
2022-10-14T22:30:45.581Z,97342.97
2022-10-14T22:32:46.881Z,97343.81
2022-10-14T22:34:48.159Z,97332.78
2022-10-14T22:36:49.440Z,97333.66
2022-10-14T22:38:50.774Z,97330.31
2022-10-14T22:40:52.031Z,97324.38
2022-10-14T22:42:54.289Z,97324.44
2022-10-14T22:44:55.584Z,97320.25
2022-10-14T22:46:56.915Z,97316.91
2022-10-14T22:48:58.512Z,97316.09
2022-10-14T22:50:59.798Z,97317.84
2022-10-14T22:53:01.056Z,97311.94
2022-10-14T22:55:02.375Z,97311.94
2022-10-14T22:57:03.635Z,97305.06
2022-10-14T22:59:04.918Z,97301.56
2022-10-14T23:01:06.331Z,97307.44
2022-10-14T23:03:07.675Z,97307.44
2022-10-14T23:05:09.030Z,97313.41
2022-10-14T23:07:10.508Z,97316.81
2022-10-14T23:09:11.825Z,97317.63
2022-10-14T23:11:13.158Z,97198.25
2022-10-14T23:13:14.482Z,97310.00
2022-10-14T23:15:15.785Z,97307.50
2022-10-14T23:17:17.077Z,97304.09
2022-10-14T23:19:18.385Z,97308.44
2022-10-14T23:21:22.486Z,97297.38
2022-10-14T23:23:23.751Z,97300.88
2022-10-14T23:25:25.054Z,97297.47
2022-10-14T23:27:26.351Z,97300.91
2022-10-14T23:29:27.657Z,97308.56
2022-10-14T23:31:28.937Z,97307.69
2022-10-14T23:33:30.670Z,97304.25
2022-10-14T23:35:32.055Z,97303.44
2022-10-14T23:37:33.387Z,97299.03
2022-10-14T23:39:34.651Z,97304.03
2022-10-14T23:41:36.227Z,97293.13
2022-10-14T23:43:37.481Z,97284.75
2022-10-14T23:45:38.907Z,97288.41
2022-10-14T23:47:40.251Z,97287.72
2022-10-14T23:49:41.538Z,97288.91
2022-10-14T23:51:42.811Z,97286.19
2022-10-14T23:53:44.102Z,97284.50
2022-10-14T23:55:45.689Z,97282.78
2022-10-14T23:57:46.992Z,97288.81